Jeffersonville, Georgia
Current Conditions -  °F | °C
As of 6:58 AM on Thursday 18 Dec 2014 (Local Time) from KWRB Reporting Station
Broken Clouds Broken Clouds  
Wind Chill:   Ceiling: 22000
Heat Index:   Visibility: 10mi
Dew Point:   Wind: 2mph
Humidity: 87%   Direction: 260°W
Pressure: 30.16"   Gusts: NA
Location:  32.69°N, 83.35°W
Report Text: KWRB 181158Z AUTO 26002KT 10SM BKN220 04/02 A3016 RMK AO2 SLP217 T00370017 10045 20026 50012
Loading
Personal Weather Stations






























Interactive Weather Map New forecast layout! Learn more

10-Day Weather Forecast

Advertisements
Track Severe Weather on mobile